Ana Sayfa
METAR-TAF:

METAR-TAF

Havaalanları :

Elâzığ Havalimanı

Elâzığ, Türkiye

Enlem: 38-36N, Boylam: 039-17E, yükseklik: 902 m

Güncel hava durumu gözlemi

Rapor saat 04:50 UTC de 27 dakika önce yapıldı.
Rüzgar batıdan 4 kt
Sıcaklık 1°C
Nem 75%
Basınç 1026 hPa
Görüş mesafesi 10 km veya daha fazla
1500 m altında bulut yok ve kümülonimbus yok

METAR: LTCA 170450Z 27004KT CAVOK 01/M03 Q1026 NOSIG

Saat: 08:17 (05:17 UTC)

Tahmin

Rapor saat 01:40 UTC de 3 saat ve 37 dakika önce yapıldı.
Ayın 17'si saat 03 UTC'den ayın 17'si saat 12 UTC'ye kadar geçerli Tahmin
Rüzgar değişken yönden 2 kt
Görüş mesafesi 10 km veya daha fazla
1500 m altında bulut yok ve kümülonimbus yok

TAF: LTCA 170140Z 1703/1712 VRB02KT CAVOK

4.000'den fazla havaalanı için hava durumu gözlemleri ve tahminleri (METAR ve TAF raporları).

Kullanılabilir istasyonlar harita üzerinde sarı ve kırmızı noktalarla gösterilir.

İstasyonun adını görmek için fareyi noktanın üzerinde gezdirin.

Sonrasında hava gözlem ve tahminlerini görmek için tıklayın.

Haritayı değiştirmek için: yaklaştırmak için siyah artı işaretli yeşil düğmeye ve uzaklaştırmak için de eksi işaretli düğmeye hızla tıklayın; bitişik haritalar için yeşil okları kullanın.


METAR-TAF: